Portada
METAR-TAF:

METAR-TAF

Aeropuertos :

Monticello Regional Airport

Monticello, Iowa, Estados Unidos

latitud: 42-14N, longitud: 091-10W, altitud: 259 m

Observación

El informe se hizo hace 20 minutos, a las 07:35 UTC
Viento 4 kt del norte-noreste
Temperatura 9°C
Humedad 100%
Presión 1025 hPa
Visibilidad: 16.1 km
Cielo despejado

METAR: KMXO 310735Z AUTO 02004KT 10SM CLR 09/09 A3027 RMK AO2

Hora: 02:55 (07:55 UTC)


TAF: falta

Observaciones y pronósticos meteorológicos de más de 4000 aeropuertos (mensajes METAR y TAF).

Los puntos amarillos y rojos representan las estaciones disponibles.

Ponga el ratón en el punto deseado para ver el nombre de la estación.

Haga clic para ver las observaciones y los pronósticos meteorológicos.

Para cambiar el mapa : haga clic en los botones verdes con una cruz de color negro para hacer un zoom, en el botón verde con un guión para alejar o en las flechas verdes para mapas adyacentes.


METAR-TAF: